CheckWX is a tool to help pilots better visualize weather data.  It is not intended as a substitute for an official pre-flight weather briefing.

06:12:46 UTC

D57 METAR
Glen Ullin Regional Airport
Glen Ullin, North Dakota, USA
Current

18 mins ago

KD57 220555Z AUTO 28007KT 10SM 03/01 A3017 RMK AO2 PWINO
Observed
Apr-22 @ 05:55 UTC
Wind
  • 280° at 7 KTS
Visibility
10 SM
Temperature
C / 37°F
Dewpoint
C / 34°F
Humidity
87%
Altimeter
30.17" Hg
Pressure
1021.72 hPa
Previous

38 mins ago

KD57 220535Z AUTO 27006KT 10SM 03/00 A3017 RMK AO2 PWINO
Observed
Apr-22 @ 05:35 UTC
Wind
  • 270° at 6 KTS
Visibility
10 SM
Temperature
C / 37°F
Dewpoint
C / 32°F
Humidity
81%
Altimeter
30.17" Hg
Pressure
1021.72 hPa
Previous

58 mins ago

KD57 220515Z AUTO 28004KT 10SM 03/00 A3016 RMK AO2 PWINO
Observed
Apr-22 @ 05:15 UTC
Wind
  • 280° at 4 KTS
Visibility
10 SM
Temperature
C / 37°F
Dewpoint
C / 32°F
Humidity
81%
Altimeter
30.16" Hg
Pressure
1021.32 hPa